weather.gov     
National Weather Service

Terminal Aerodrome Forecast
NWS Homepage
This page is being discontinued on March 12, 2014.
The same data is available at this site. Please update your bookmarks.
Thank you, and we apologize for the inconvenience.
Please send an email to SR-SRH.Webmaster@noaa.gov with any concerns.


Current Version
Previous Version:    01  02  03  04  05  06  07  08  09  10  11  12  13  14  15  16  17  18  19  20  21  22  23  24  25  26  27  28  29  30  
   31  32  33  
[Printable]
521
FTUS44 KTSA 020500
TAFXNA
TAF
KXNA 020520Z 0206/0306 19008KT P6SM SCT250
     FM020900 18006KT 5SM BR BKN250
     FM021200 18010KT P6SM SCT020 OVC250
     FM022000 19010KT P6SM VCTS BKN050CB
      TEMPO 0220/0224 3SM +TSRA BKN030CB
     FM030000 20008KT P6SM VCTS BKN040CB
      TEMPO 0300/0304 1SM +TSRA BKN030CB
     FM030500 25008KT P6SM VCSH OVC120=


U.S. Dept. of Commerce
NOAA National Weather Service
1325 East West Highway
Silver Spring, MD 20910
E-mail: w-nws.webmaster@noaa.gov
Page last modified: May 16, 2007
NATIONAL WEATHER SERVICE: for Safety, for Work, for Fun - FOR LIFE